createdAt,value
2019-01-17T00:04:30.754Z,99.90
2019-01-17T00:09:50.859Z,99.90
2019-01-17T00:15:13.006Z,99.90
2019-01-17T00:20:50.315Z,99.90
2019-01-17T00:26:09.600Z,99.90
2019-01-17T00:31:34.005Z,99.90
2019-01-17T00:37:05.990Z,99.90
2019-01-17T00:42:28.857Z,99.90
2019-01-17T00:48:00.841Z,99.90
2019-01-17T00:53:25.556Z,99.90
2019-01-17T00:58:46.991Z,99.90
2019-01-17T01:04:06.374Z,99.90
2019-01-17T01:09:32.518Z,99.90
2019-01-17T01:14:54.459Z,99.90
2019-01-17T01:20:19.890Z,99.90
2019-01-17T01:25:42.657Z,99.90
2019-01-17T01:31:11.365Z,99.90
2019-01-17T01:36:40.067Z,99.90
2019-01-17T01:41:51.490Z,99.90
2019-01-17T01:47:32.258Z,99.90
2019-01-17T01:52:49.082Z,99.90
2019-01-17T01:57:52.529Z,99.90
2019-01-17T02:02:56.009Z,99.90
2019-01-17T02:08:02.600Z,99.90
2019-01-17T02:13:05.970Z,99.90
2019-01-17T02:18:12.150Z,99.90
2019-01-17T02:23:18.493Z,99.90
2019-01-17T02:28:21.940Z,99.90
2019-01-17T02:33:26.936Z,99.90
2019-01-17T02:38:30.549Z,99.90
2019-01-17T02:43:33.917Z,99.90
2019-01-17T02:48:37.226Z,99.90
2019-01-17T02:53:43.758Z,99.90
2019-01-17T02:58:47.196Z,99.90
2019-01-17T03:03:50.441Z,99.90
2019-01-17T03:08:53.642Z,99.90
2019-01-17T03:13:56.954Z,99.90
2019-01-17T03:19:00.615Z,99.90
2019-01-17T03:24:03.985Z,99.90
2019-01-17T03:29:07.271Z,99.90
2019-01-17T03:34:10.753Z,99.90
2019-01-17T03:39:16.930Z,99.90
2019-01-17T03:44:20.272Z,99.90
2019-01-17T03:49:27.036Z,99.90
2019-01-17T03:54:33.382Z,99.90
2019-01-17T03:59:36.723Z,99.90
2019-01-17T04:04:40.135Z,97.70
2019-01-17T04:09:43.400Z,97.30
2019-01-17T04:14:46.720Z,97.60
2019-01-17T04:19:52.779Z,98.00
2019-01-17T04:24:57.494Z,97.70
2019-01-17T04:30:01.501Z,97.20
2019-01-17T04:35:04.963Z,95.70
2019-01-17T04:40:08.698Z,96.10
2019-01-17T04:45:12.931Z,95.50
2019-01-17T04:50:21.916Z,96.00
2019-01-17T04:55:25.425Z,97.00
2019-01-17T05:00:28.915Z,96.80
2019-01-17T05:05:32.211Z,96.80
2019-01-17T05:10:41.715Z,95.40
2019-01-17T05:15:48.502Z,95.00
2019-01-17T05:20:51.693Z,94.90
2019-01-17T05:25:55.070Z,93.90
2019-01-17T05:30:58.582Z,93.20
2019-01-17T05:36:02.249Z,93.10
2019-01-17T05:41:08.467Z,93.00
2019-01-17T05:46:11.946Z,91.60
2019-01-17T05:51:15.355Z,90.90
2019-01-17T05:56:21.946Z,91.20
2019-01-17T06:01:25.294Z,90.90
2019-01-17T06:06:33.012Z,91.40
2019-01-17T06:11:33.714Z,90.10
2019-01-17T06:16:37.087Z,89.10
2019-01-17T06:21:57.742Z,82.80
2019-01-17T06:27:01.208Z,78.20
2019-01-17T06:32:07.107Z,71.90
2019-01-17T06:37:10.645Z,71.80
2019-01-17T06:42:14.001Z,71.50
2019-01-17T06:47:19.004Z,68.60
2019-01-17T06:52:22.460Z,67.70
2019-01-17T06:57:25.795Z,63.10
2019-01-17T07:02:32.317Z,61.80
2019-01-17T07:07:35.467Z,62.20
2019-01-17T07:12:38.883Z,62.90
2019-01-17T07:17:42.269Z,64.60
2019-01-17T07:22:48.039Z,67.90
2019-01-17T07:27:54.224Z,65.90
2019-01-17T07:32:57.592Z,65.60
2019-01-17T07:38:01.222Z,62.90
2019-01-17T07:43:07.353Z,59.10
2019-01-17T07:48:10.913Z,60.30
2019-01-17T07:53:14.301Z,57.90
2019-01-17T07:58:17.708Z,50.10
2019-01-17T08:03:24.226Z,46.10
2019-01-17T08:08:27.495Z,44.70
2019-01-17T08:13:34.021Z,46.70
2019-01-17T08:18:37.535Z,49.70
2019-01-17T08:23:42.346Z,46.50
2019-01-17T08:28:45.647Z,47.70
2019-01-17T08:33:49.060Z,50.50
2019-01-17T08:38:52.258Z,48.50
2019-01-17T08:43:55.698Z,45.80
2019-01-17T08:48:59.093Z,45.30
2019-01-17T08:54:02.572Z,41.50
2019-01-17T08:59:05.938Z,42.20
2019-01-17T09:04:09.307Z,42.30
2019-01-17T09:09:12.728Z,39.30
2019-01-17T09:14:17.614Z,42.30
2019-01-17T09:19:21.252Z,44.10
2019-01-17T09:24:24.715Z,45.70
2019-01-17T09:29:30.076Z,47.20
2019-01-17T09:34:33.411Z,45.30
2019-01-17T09:39:39.720Z,29.40
2019-01-17T09:44:43.102Z,26.50
2019-01-17T09:49:46.433Z,23.10
2019-01-17T09:54:51.293Z,18.70
2019-01-17T09:59:54.702Z,17.40
2019-01-17T10:05:01.149Z,7.40
2019-01-17T10:10:05.108Z,2.00
2019-01-17T10:15:19.167Z,2.70
2019-01-17T10:21:13.066Z,1.60
2019-01-17T10:26:47.611Z,3.80
2019-01-17T10:32:45.808Z,1.00
2019-01-17T10:38:24.032Z,1.00
2019-01-17T10:43:58.609Z,1.00
2019-01-17T10:49:29.533Z,1.00
2019-01-17T10:55:06.330Z,1.00
2019-01-17T11:00:50.298Z,1.00
2019-01-17T11:06:39.254Z,1.00
2019-01-17T11:12:12.483Z,1.00
2019-01-17T11:18:24.811Z,1.00
2019-01-17T11:23:57.308Z,1.00
2019-01-17T11:29:37.787Z,8.30
2019-01-17T11:35:17.347Z,10.20
2019-01-17T11:40:50.154Z,11.80
2019-01-17T11:46:41.180Z,16.40
2019-01-17T11:52:44.393Z,14.10
2019-01-17T11:58:26.551Z,11.70
2019-01-17T12:04:05.256Z,13.40
2019-01-17T12:09:08.521Z,13.90
2019-01-17T12:14:11.808Z,11.70
2019-01-17T12:19:15.292Z,7.50
2019-01-17T12:24:18.802Z,6.80
2019-01-17T12:29:30.666Z,11.10
2019-01-17T12:34:34.254Z,8.00
2019-01-17T12:39:37.679Z,10.60
2019-01-17T12:44:43.819Z,9.80
2019-01-17T12:49:47.436Z,11.50
2019-01-17T12:54:50.798Z,5.50
2019-01-17T12:59:54.315Z,10.30
2019-01-17T13:05:00.375Z,14.80
2019-01-17T13:10:04.342Z,19.70
2019-01-17T13:15:09.262Z,28.20
2019-01-17T13:20:14.667Z,71.60
2019-01-17T13:25:20.297Z,94.80
2019-01-17T13:30:24.016Z,99.90
2019-01-17T13:35:29.011Z,99.90
2019-01-17T13:40:33.405Z,99.90
2019-01-17T13:45:42.021Z,99.90
2019-01-17T13:50:45.595Z,99.90
2019-01-17T13:55:48.850Z,99.90
2019-01-17T14:00:55.142Z,99.90
2019-01-17T14:05:58.443Z,99.90
2019-01-17T14:11:02.009Z,99.90
2019-01-17T14:16:06.074Z,99.60
2019-01-17T14:21:12.147Z,99.90
2019-01-17T14:26:15.560Z,99.90
2019-01-17T14:31:19.065Z,99.90
2019-01-17T14:36:22.655Z,99.90
2019-01-17T14:41:26.099Z,99.90
2019-01-17T14:46:29.686Z,99.90
2019-01-17T14:51:35.759Z,99.80
2019-01-17T14:56:39.796Z,99.90
2019-01-17T15:01:46.786Z,99.10
2019-01-17T15:06:56.242Z,97.60
2019-01-17T15:12:04.876Z,96.40
2019-01-17T15:17:08.398Z,94.70
2019-01-17T15:22:12.085Z,93.80
2019-01-17T15:27:18.601Z,92.80
2019-01-17T15:32:22.489Z,90.70
2019-01-17T15:37:26.576Z,89.70
2019-01-17T15:42:31.100Z,88.20
2019-01-17T15:47:34.812Z,85.70
2019-01-17T15:52:38.739Z,83.90
2019-01-17T15:57:43.762Z,85.30
2019-01-17T16:02:47.134Z,78.90
2019-01-17T16:07:50.387Z,78.90
2019-01-17T16:12:53.819Z,78.40
2019-01-17T16:17:56.980Z,75.90
2019-01-17T16:23:00.434Z,77.20
2019-01-17T16:28:03.953Z,74.20
2019-01-17T16:33:07.222Z,77.30
2019-01-17T16:38:12.444Z,78.60
2019-01-17T16:43:15.928Z,78.70
2019-01-17T16:48:19.448Z,79.40
2019-01-17T16:53:22.903Z,83.40
2019-01-17T16:58:26.215Z,83.40
2019-01-17T17:03:31.321Z,86.10
2019-01-17T17:08:34.764Z,89.20
2019-01-17T17:13:47.002Z,88.60
2019-01-17T17:18:50.495Z,82.60
2019-01-17T17:23:53.726Z,69.50
2019-01-17T17:28:57.027Z,68.70
2019-01-17T17:34:00.502Z,67.10
2019-01-17T17:39:06.124Z,70.60
2019-01-17T17:44:12.454Z,75.70
2019-01-17T17:49:15.908Z,75.10
2019-01-17T17:54:19.201Z,75.90
2019-01-17T17:59:22.637Z,81.50
2019-01-17T18:04:26.097Z,90.10
2019-01-17T18:09:29.448Z,93.40
2019-01-17T18:14:32.743Z,91.70
2019-01-17T18:19:36.163Z,88.80
2019-01-17T18:24:45.689Z,90.30
2019-01-17T18:29:49.038Z,88.80
2019-01-17T18:34:55.281Z,89.90
2019-01-17T18:40:00.353Z,87.20
2019-01-17T18:45:04.761Z,89.20
2019-01-17T18:50:10.914Z,88.50
2019-01-17T18:55:14.320Z,89.00
2019-01-17T19:00:29.746Z,93.80
2019-01-17T19:05:35.856Z,99.90
2019-01-17T19:10:48.308Z,99.90
2019-01-17T19:15:51.696Z,99.90
2019-01-17T19:20:57.873Z,99.90
2019-01-17T19:26:01.174Z,99.90
2019-01-17T19:31:04.865Z,99.90
2019-01-17T19:36:08.835Z,99.90
2019-01-17T19:41:12.409Z,99.90
2019-01-17T19:46:17.022Z,99.90
2019-01-17T19:51:23.165Z,99.90
2019-01-17T19:56:26.598Z,99.90
2019-01-17T20:01:30.002Z,99.90
2019-01-17T20:06:33.570Z,99.90
2019-01-17T20:11:39.917Z,99.90
2019-01-17T20:16:43.463Z,99.90
2019-01-17T20:21:46.879Z,99.90
2019-01-17T20:26:50.231Z,99.90
2019-01-17T20:31:55.289Z,99.90
2019-01-17T20:36:59.893Z,99.90
2019-01-17T20:42:03.279Z,99.90
2019-01-17T20:47:06.559Z,99.90
2019-01-17T20:52:10.118Z,99.90
2019-01-17T20:57:14.404Z,99.90
2019-01-17T21:02:19.161Z,99.90
2019-01-17T21:07:22.508Z,99.90
2019-01-17T21:12:28.726Z,99.90
2019-01-17T21:17:32.099Z,99.90
2019-01-17T21:22:38.482Z,99.90
2019-01-17T21:27:47.875Z,99.90
2019-01-17T21:32:51.210Z,99.90
2019-01-17T21:37:55.169Z,99.90
2019-01-17T21:42:58.527Z,99.90
2019-01-17T21:48:05.338Z,99.90
2019-01-17T21:53:10.534Z,99.90
2019-01-17T21:58:15.323Z,99.90
2019-01-17T22:03:18.472Z,99.90
2019-01-17T22:08:21.307Z,99.90
2019-01-17T22:13:27.220Z,99.90
2019-01-17T22:18:30.612Z,99.90
2019-01-17T22:23:33.972Z,99.90
2019-01-17T22:28:40.941Z,99.90
2019-01-17T22:33:46.226Z,99.90
2019-01-17T22:38:49.841Z,99.90
2019-01-17T22:43:53.273Z,99.90
2019-01-17T22:48:56.600Z,99.90
2019-01-17T22:53:59.828Z,99.90
2019-01-17T22:59:09.102Z,99.90
2019-01-17T23:04:08.543Z,99.90
2019-01-17T23:09:11.919Z,99.90
2019-01-17T23:14:15.324Z,99.90
2019-01-17T23:19:18.737Z,99.90
2019-01-17T23:24:25.107Z,99.90
2019-01-17T23:29:28.224Z,99.90
2019-01-17T23:34:31.831Z,98.90
2019-01-17T23:39:35.098Z,94.30
2019-01-17T23:44:41.582Z,90.20
2019-01-17T23:49:46.591Z,90.90
2019-01-17T23:54:53.220Z,86.80
